createdAt,value
2023-05-11T00:01:36.397Z,77.50
2023-05-11T00:04:03.220Z,94.40
2023-05-11T00:06:30.194Z,118.60
2023-05-11T00:08:57.097Z,158.10
2023-05-11T00:11:23.904Z,162.30
2023-05-11T00:13:50.579Z,135.40
2023-05-11T00:16:17.398Z,131.50
2023-05-11T00:18:44.562Z,153.00
2023-05-11T00:21:11.537Z,122.60
2023-05-11T00:23:38.529Z,151.00
2023-05-11T00:26:05.578Z,164.00
2023-05-11T00:28:32.289Z,159.10
2023-05-11T00:30:59.316Z,126.50
2023-05-11T00:33:26.343Z,117.40
2023-05-11T00:35:53.224Z,133.70
2023-05-11T00:38:19.977Z,129.70
2023-05-11T00:40:48.492Z,136.10
2023-05-11T00:43:15.801Z,123.20
2023-05-11T00:45:43.872Z,104.90
2023-05-11T00:48:10.773Z,139.60
2023-05-11T00:50:37.616Z,113.50
2023-05-11T00:53:04.404Z,105.20
2023-05-11T00:55:31.630Z,89.90
2023-05-11T00:57:58.430Z,94.00
2023-05-11T01:00:25.381Z,96.00
2023-05-11T01:02:52.643Z,91.20
2023-05-11T01:05:19.982Z,116.70
2023-05-11T01:07:53.186Z,113.20
2023-05-11T01:10:37.222Z,138.90
2023-05-11T01:13:31.569Z,112.30
2023-05-11T01:15:58.593Z,102.20
2023-05-11T01:18:39.948Z,112.30
2023-05-11T01:21:10.569Z,92.50
2023-05-11T01:23:40.575Z,97.00
2023-05-11T01:26:16.805Z,111.90
2023-05-11T01:29:02.898Z,126.20
2023-05-11T01:31:33.546Z,126.90
2023-05-11T01:34:05.849Z,139.80
2023-05-11T01:36:34.412Z,144.40
2023-05-11T01:39:03.205Z,137.40
2023-05-11T01:41:31.436Z,109.80
2023-05-11T01:44:00.242Z,105.60
2023-05-11T01:46:27.810Z,109.80
2023-05-11T01:48:56.311Z,106.40
2023-05-11T01:51:28.698Z,104.70
2023-05-11T01:53:56.035Z,109.50
2023-05-11T01:56:23.112Z,90.30
2023-05-11T01:58:49.877Z,102.40
2023-05-11T02:01:17.935Z,102.80
2023-05-11T02:03:44.769Z,90.40
2023-05-11T02:06:11.632Z,93.00
2023-05-11T02:08:39.210Z,85.80
2023-05-11T02:11:06.094Z,82.40
2023-05-11T02:13:34.142Z,69.70
2023-05-11T02:16:00.973Z,58.70
2023-05-11T02:18:27.990Z,79.50
2023-05-11T02:20:58.982Z,93.40
2023-05-11T02:23:27.117Z,82.70
2023-05-11T02:25:54.195Z,82.80
2023-05-11T02:28:21.660Z,83.00
2023-05-11T02:30:50.207Z,89.90
2023-05-11T02:33:22.095Z,93.70
2023-05-11T02:35:49.045Z,71.40
2023-05-11T02:38:16.496Z,62.30
2023-05-11T02:40:47.812Z,72.20
2023-05-11T02:43:21.569Z,73.20
2023-05-11T02:45:53.788Z,77.20
2023-05-11T02:48:26.275Z,56.10
2023-05-11T02:50:54.536Z,60.40
2023-05-11T02:53:23.639Z,77.90
2023-05-11T02:55:50.705Z,65.10
2023-05-11T02:58:18.092Z,68.00
2023-05-11T03:00:47.285Z,75.50
2023-05-11T03:03:14.624Z,77.10
2023-05-11T03:05:41.556Z,88.10
2023-05-11T03:08:08.711Z,85.80
2023-05-11T03:10:36.678Z,99.90
2023-05-11T03:13:03.510Z,92.50
2023-05-11T03:15:30.642Z,79.50
2023-05-11T03:17:58.567Z,82.70
2023-05-11T03:20:25.473Z,88.00
2023-05-11T03:22:52.355Z,80.50
2023-05-11T03:25:19.297Z,83.50
2023-05-11T03:27:46.499Z,76.50
2023-05-11T03:30:14.224Z,71.20
2023-05-11T03:32:44.012Z,84.90
2023-05-11T03:35:10.937Z,85.60
2023-05-11T03:37:38.065Z,80.80
2023-05-11T03:40:06.059Z,80.40
2023-05-11T03:42:38.675Z,93.70
2023-05-11T03:45:06.561Z,74.40
2023-05-11T03:47:33.987Z,69.80
2023-05-11T03:50:01.298Z,74.00
2023-05-11T03:52:28.921Z,72.10
2023-05-11T03:54:56.111Z,72.70
2023-05-11T03:57:25.414Z,71.00
2023-05-11T03:59:52.239Z,54.60
2023-05-11T04:02:19.295Z,59.20
2023-05-11T04:04:46.187Z,57.10
2023-05-11T04:07:13.096Z,59.80
2023-05-11T04:09:39.869Z,58.60
2023-05-11T04:12:07.473Z,57.40
2023-05-11T04:14:34.472Z,62.50
2023-05-11T04:17:01.243Z,59.10
2023-05-11T04:19:28.529Z,56.00
2023-05-11T04:21:55.235Z,57.40
2023-05-11T04:24:22.012Z,63.30
2023-05-11T04:26:48.738Z,58.90
2023-05-11T04:29:15.446Z,33.60
2023-05-11T04:31:42.167Z,30.10
2023-05-11T04:34:08.996Z,21.20
2023-05-11T04:36:36.835Z,46.40
2023-05-11T04:39:04.245Z,21.40
2023-05-11T04:41:32.522Z,19.70
2023-05-11T04:44:01.043Z,27.40
2023-05-11T04:46:28.815Z,24.90
2023-05-11T04:48:56.061Z,17.60
2023-05-11T04:51:23.214Z,17.30
2023-05-11T04:53:50.491Z,22.50
2023-05-11T04:56:20.734Z,25.70
2023-05-11T04:58:48.840Z,25.20
2023-05-11T05:01:15.639Z,23.40
2023-05-11T05:03:42.609Z,23.20
2023-05-11T05:06:09.355Z,18.40
2023-05-11T05:08:37.129Z,16.30
2023-05-11T05:11:04.469Z,25.70
2023-05-11T05:13:31.236Z,24.10
2023-05-11T05:15:58.046Z,22.40
2023-05-11T05:18:24.970Z,28.30
2023-05-11T05:20:51.871Z,24.20
2023-05-11T05:23:18.835Z,22.20
2023-05-11T05:25:46.001Z,20.60
2023-05-11T05:28:13.050Z,14.90
2023-05-11T05:30:40.598Z,10.30
2023-05-11T05:33:07.626Z,14.40
2023-05-11T05:35:35.323Z,17.80
2023-05-11T05:38:02.094Z,11.20
2023-05-11T05:40:28.968Z,12.10
2023-05-11T05:42:56.305Z,13.40
2023-05-11T05:45:24.112Z,8.20
2023-05-11T05:47:51.844Z,16.50
2023-05-11T05:50:19.608Z,8.30
2023-05-11T05:52:47.645Z,8.80
2023-05-11T05:55:14.568Z,23.50
2023-05-11T05:57:43.043Z,10.40
2023-05-11T06:00:11.120Z,11.90
2023-05-11T06:02:41.634Z,12.40
2023-05-11T06:05:11.173Z,18.20
2023-05-11T06:07:38.741Z,22.40
2023-05-11T06:10:06.172Z,12.20
2023-05-11T06:12:33.782Z,16.60
2023-05-11T06:15:00.897Z,20.00
2023-05-11T06:17:28.797Z,13.10
2023-05-11T06:19:55.645Z,12.40
2023-05-11T06:22:23.764Z,13.10
2023-05-11T06:24:50.957Z,11.00
2023-05-11T06:27:18.693Z,11.80
2023-05-11T06:29:45.768Z,7.20
2023-05-11T06:32:19.006Z,9.50
2023-05-11T06:34:46.637Z,10.10
2023-05-11T06:37:20.302Z,10.70
2023-05-11T06:39:49.070Z,6.80
2023-05-11T06:42:15.941Z,8.50
2023-05-11T06:44:42.859Z,6.80
2023-05-11T06:47:10.701Z,5.30
2023-05-11T06:49:37.704Z,4.70
2023-05-11T06:52:04.498Z,6.60
2023-05-11T06:54:31.364Z,9.50
2023-05-11T06:56:58.333Z,7.80
2023-05-11T06:59:26.501Z,6.70
2023-05-11T07:04:19.965Z,10.00
2023-05-11T07:06:46.702Z,7.10
2023-05-11T07:09:13.437Z,11.10
2023-05-11T07:11:40.878Z,10.20
2023-05-11T07:14:07.898Z,4.70
2023-05-11T07:16:37.781Z,3.50
2023-05-11T07:19:05.894Z,4.00
2023-05-11T07:21:33.883Z,3.60
2023-05-11T07:24:00.662Z,6.00
2023-05-11T07:26:27.430Z,9.00
2023-05-11T07:28:54.323Z,8.80
2023-05-11T07:31:21.852Z,9.70
2023-05-11T07:33:48.653Z,4.40
2023-05-11T07:36:15.415Z,7.20
2023-05-11T07:38:42.128Z,7.30
2023-05-11T07:41:10.796Z,3.60
2023-05-11T07:43:39.292Z,3.40
2023-05-11T07:46:06.746Z,3.60
2023-05-11T07:48:33.523Z,4.10
2023-05-11T07:51:01.097Z,5.00
2023-05-11T07:53:28.329Z,6.20
2023-05-11T07:55:55.576Z,4.10
2023-05-11T07:58:22.574Z,6.50
2023-05-11T08:00:49.302Z,4.50
2023-05-11T08:03:16.284Z,4.80
2023-05-11T08:05:43.144Z,6.00
2023-05-11T08:08:10.077Z,6.50
2023-05-11T08:10:37.041Z,7.20
2023-05-11T08:13:03.753Z,3.70
2023-05-11T08:15:30.500Z,5.30
2023-05-11T08:17:57.337Z,12.00
2023-05-11T08:20:24.254Z,5.40
2023-05-11T08:22:51.106Z,4.70
2023-05-11T08:25:18.264Z,8.90
2023-05-11T08:27:45.305Z,5.10
2023-05-11T08:30:12.642Z,12.30
2023-05-11T08:32:57.222Z,9.80
2023-05-11T08:35:25.212Z,5.20
2023-05-11T08:37:51.916Z,7.00
2023-05-11T08:40:18.956Z,6.90
2023-05-11T08:42:45.780Z,6.50
2023-05-11T08:45:13.043Z,46.60
2023-05-11T08:47:40.230Z,6.20
2023-05-11T08:50:07.232Z,3.70
2023-05-11T08:52:34.333Z,7.30
2023-05-11T08:55:01.168Z,3.50
2023-05-11T08:57:28.939Z,3.70
2023-05-11T08:59:55.713Z,6.00
2023-05-11T09:02:22.543Z,4.50
2023-05-11T09:04:49.444Z,7.00
2023-05-11T09:07:19.136Z,4.10
2023-05-11T09:09:46.662Z,8.80
2023-05-11T09:12:13.697Z,6.70
2023-05-11T09:14:40.581Z,10.60
2023-05-11T09:17:07.693Z,6.90
2023-05-11T09:19:34.658Z,8.80
2023-05-11T09:22:01.376Z,5.10
2023-05-11T09:24:28.123Z,13.70
2023-05-11T09:29:51.952Z,10.10
2023-05-11T09:32:19.024Z,5.70
2023-05-11T09:34:46.199Z,8.10
2023-05-11T09:37:17.419Z,5.80
2023-05-11T09:42:20.901Z,5.00
2023-05-11T09:47:16.840Z,3.20
2023-05-11T09:49:44.419Z,7.00
2023-05-11T09:52:15.089Z,8.80
2023-05-11T09:54:43.504Z,9.50
2023-05-11T09:57:21.926Z,7.70
2023-05-11T09:59:49.369Z,5.40
2023-05-11T10:02:23.132Z,6.10
2023-05-11T10:04:50.718Z,5.10
2023-05-11T10:07:33.858Z,6.80
2023-05-11T10:10:01.461Z,10.70
2023-05-11T10:12:28.734Z,15.00
2023-05-11T10:14:59.212Z,3.50
2023-05-11T10:17:26.048Z,3.80
2023-05-11T10:19:54.451Z,3.80
2023-05-11T10:22:21.203Z,6.90
2023-05-11T10:24:48.032Z,4.90
2023-05-11T10:27:14.854Z,15.20
2023-05-11T10:29:41.893Z,9.70
2023-05-11T10:32:09.001Z,4.70
2023-05-11T10:34:36.171Z,6.10
2023-05-11T10:37:02.985Z,8.90
2023-05-11T10:39:29.727Z,9.30
2023-05-11T10:42:29.148Z,15.80
2023-05-11T10:45:33.589Z,5.10
2023-05-11T10:48:25.640Z,10.60
2023-05-11T10:51:33.279Z,12.20
2023-05-11T10:54:06.898Z,9.20
2023-05-11T10:56:43.878Z,11.90
2023-05-11T10:59:33.861Z,4.20
2023-05-11T11:02:02.065Z,13.10
2023-05-11T11:04:46.324Z,15.70
2023-05-11T11:07:17.642Z,3.80
2023-05-11T11:09:51.970Z,4.90
2023-05-11T11:12:20.005Z,4.60
2023-05-11T11:15:00.645Z,5.40
2023-05-11T11:17:31.722Z,7.80
2023-05-11T11:20:00.738Z,11.10
2023-05-11T11:22:40.891Z,6.30
2023-05-11T11:25:08.544Z,7.00
2023-05-11T11:27:41.312Z,8.70
2023-05-11T11:30:28.537Z,6.60
2023-05-11T11:33:07.308Z,4.20
2023-05-11T11:35:40.174Z,11.30
2023-05-11T11:38:11.666Z,4.80
2023-05-11T11:40:50.083Z,7.40
2023-05-11T11:43:27.821Z,3.60
2023-05-11T11:45:55.794Z,8.50
2023-05-11T11:51:08.483Z,3.40
2023-05-11T11:53:35.958Z,7.60
2023-05-11T11:56:03.770Z,4.90
2023-05-11T12:01:14.386Z,4.20
2023-05-11T12:03:45.692Z,6.00
2023-05-11T12:06:12.844Z,3.80
2023-05-11T12:08:40.426Z,4.90
2023-05-11T12:11:07.546Z,4.30
2023-05-11T12:13:34.939Z,8.20
2023-05-11T12:16:11.938Z,6.90
2023-05-11T12:18:39.841Z,4.00
2023-05-11T12:21:07.199Z,5.30
2023-05-11T12:23:36.026Z,7.30
2023-05-11T12:26:04.094Z,5.00
2023-05-11T12:28:32.193Z,3.20
2023-05-11T12:31:00.608Z,5.20
2023-05-11T12:33:30.440Z,7.30
2023-05-11T12:35:57.378Z,4.80
2023-05-11T12:38:24.140Z,3.30
2023-05-11T12:40:52.264Z,3.50
2023-05-11T12:43:20.362Z,7.80
2023-05-11T12:45:48.847Z,4.60
2023-05-11T12:48:16.070Z,4.50
2023-05-11T12:50:44.373Z,7.70
2023-05-11T12:53:15.347Z,7.30
2023-05-11T12:55:42.227Z,2.80
2023-05-11T12:58:11.607Z,3.90
2023-05-11T13:00:54.433Z,6.80
2023-05-11T13:03:25.357Z,3.50
2023-05-11T13:06:03.712Z,4.20
2023-05-11T13:08:30.969Z,4.50
2023-05-11T13:11:21.713Z,7.20
2023-05-11T13:13:49.150Z,9.00
2023-05-11T13:16:29.506Z,27.30
2023-05-11T13:19:01.002Z,7.30
2023-05-11T13:21:29.150Z,3.40
2023-05-11T13:23:56.196Z,6.70
2023-05-11T13:26:28.210Z,7.40
2023-05-11T13:29:08.688Z,5.80
2023-05-11T13:31:45.311Z,6.80
2023-05-11T13:34:12.140Z,10.30
2023-05-11T13:36:39.410Z,5.30
2023-05-11T13:39:06.617Z,6.00
2023-05-11T13:41:34.283Z,3.30
2023-05-11T13:44:01.131Z,3.70
2023-05-11T13:46:28.444Z,4.40
2023-05-11T13:48:55.536Z,8.00
2023-05-11T13:51:22.477Z,3.70
2023-05-11T13:53:49.386Z,2.60
2023-05-11T13:56:18.830Z,4.20
2023-05-11T13:58:45.722Z,14.40
2023-05-11T14:01:12.602Z,3.30
2023-05-11T14:03:39.455Z,5.10
2023-05-11T14:06:06.826Z,8.00
2023-05-11T14:08:33.903Z,5.20
2023-05-11T14:11:01.131Z,3.80
2023-05-11T14:13:28.204Z,5.60
2023-05-11T14:15:55.495Z,8.90
2023-05-11T14:18:24.258Z,6.20
2023-05-11T14:20:51.640Z,2.90
2023-05-11T14:23:18.380Z,4.00
2023-05-11T14:25:46.648Z,3.50
2023-05-11T14:28:13.443Z,4.10
2023-05-11T14:30:40.503Z,6.10
2023-05-11T14:33:07.363Z,4.40
2023-05-11T14:35:34.316Z,5.40
2023-05-11T14:38:02.351Z,2.90
2023-05-11T14:40:29.565Z,6.40
2023-05-11T14:42:56.297Z,4.70
2023-05-11T14:45:23.089Z,5.80
2023-05-11T14:47:50.374Z,2.40
2023-05-11T14:50:17.418Z,4.20
2023-05-11T14:52:46.435Z,3.70
2023-05-11T14:55:13.242Z,3.70
2023-05-11T14:57:40.135Z,3.60
2023-05-11T15:00:08.240Z,3.30
2023-05-11T15:05:02.311Z,2.80
2023-05-11T15:07:29.383Z,3.40
2023-05-11T15:09:56.307Z,95.40
2023-05-11T15:12:23.653Z,4.20
2023-05-11T15:14:51.301Z,5.20
2023-05-11T15:17:18.077Z,3.70
2023-05-11T15:19:44.876Z,2.70
2023-05-11T15:22:13.340Z,3.90
2023-05-11T15:24:40.634Z,9.50
2023-05-11T15:27:07.407Z,3.20
2023-05-11T15:29:34.445Z,5.80
2023-05-11T15:32:01.324Z,6.20
2023-05-11T15:34:29.403Z,2.60
2023-05-11T15:36:58.113Z,4.30
2023-05-11T15:39:25.356Z,8.60
2023-05-11T15:41:52.292Z,9.60
2023-05-11T15:44:19.302Z,4.30
2023-05-11T15:46:46.817Z,4.20
2023-05-11T15:49:15.301Z,3.00
2023-05-11T15:51:42.056Z,4.30
2023-05-11T15:54:08.788Z,4.50
2023-05-11T15:56:35.909Z,4.70
2023-05-11T15:59:03.592Z,7.40
2023-05-11T16:01:30.509Z,4.00
2023-05-11T16:03:57.410Z,3.20
2023-05-11T16:06:24.515Z,9.30
2023-05-11T16:08:52.608Z,4.50
2023-05-11T16:11:19.467Z,4.50
2023-05-11T16:13:46.183Z,5.10
2023-05-11T16:16:13.367Z,6.30
2023-05-11T16:18:40.362Z,3.40
2023-05-11T16:21:07.813Z,10.10
2023-05-11T16:23:41.441Z,5.70
2023-05-11T16:26:08.428Z,15.90
2023-05-11T16:28:35.726Z,28.80
2023-05-11T16:31:02.685Z,14.40
2023-05-11T16:33:29.492Z,50.10
2023-05-11T16:35:56.477Z,17.30
2023-05-11T16:38:23.318Z,32.40
2023-05-11T16:40:50.310Z,6.20
2023-05-11T16:43:17.020Z,14.60
2023-05-11T16:45:43.965Z,7.70
2023-05-11T16:50:38.932Z,11.70
2023-05-11T16:53:06.021Z,10.70
2023-05-11T16:55:34.718Z,13.90
2023-05-11T16:58:01.739Z,5.40
2023-05-11T17:00:29.014Z,6.40
2023-05-11T17:02:56.064Z,10.40
2023-05-11T17:05:23.627Z,14.20
2023-05-11T17:07:50.529Z,18.60
2023-05-11T17:10:17.706Z,13.30
2023-05-11T17:12:45.110Z,15.50
2023-05-11T17:15:12.187Z,11.00
2023-05-11T17:17:40.591Z,8.30
2023-05-11T17:20:09.659Z,25.70
2023-05-11T17:22:37.321Z,13.10
2023-05-11T17:25:05.703Z,20.90
2023-05-11T17:29:59.544Z,9.60
2023-05-11T17:32:26.477Z,4.40
2023-05-11T17:34:53.533Z,5.80
2023-05-11T17:37:31.095Z,7.00
2023-05-11T17:40:02.625Z,8.50
2023-05-11T17:42:30.195Z,18.00
2023-05-11T17:44:57.320Z,6.10
2023-05-11T17:47:24.165Z,8.70
2023-05-11T17:49:50.969Z,6.70
2023-05-11T17:52:17.866Z,8.40
2023-05-11T17:54:44.817Z,8.80
2023-05-11T17:57:11.657Z,7.60
2023-05-11T17:59:38.507Z,8.30
2023-05-11T18:02:05.373Z,10.70
2023-05-11T18:04:35.694Z,6.90
2023-05-11T18:07:03.431Z,7.00
2023-05-11T18:09:30.435Z,8.20
2023-05-11T18:11:57.608Z,5.50
2023-05-11T18:14:27.191Z,7.30
2023-05-11T18:16:53.979Z,14.70
2023-05-11T18:19:21.522Z,9.90
2023-05-11T18:21:49.263Z,11.70
2023-05-11T18:26:44.574Z,10.90
2023-05-11T18:29:11.264Z,9.50
2023-05-11T18:31:38.111Z,14.40
2023-05-11T18:34:05.305Z,10.60
2023-05-11T18:36:32.608Z,10.40
2023-05-11T18:38:59.614Z,6.40
2023-05-11T18:41:27.402Z,8.50
2023-05-11T18:43:54.167Z,18.60
2023-05-11T18:46:21.282Z,17.50
2023-05-11T18:48:49.985Z,17.70
2023-05-11T18:51:19.395Z,107.80
2023-05-11T18:53:46.135Z,21.10
2023-05-11T18:56:12.952Z,24.20
2023-05-11T18:58:39.694Z,17.50
2023-05-11T19:01:07.104Z,22.40
2023-05-11T19:03:35.598Z,22.80
2023-05-11T19:06:02.606Z,13.80
2023-05-11T19:08:29.885Z,20.40
2023-05-11T19:11:04.249Z,15.50
2023-05-11T19:13:31.404Z,29.60
2023-05-11T19:15:58.133Z,37.60
2023-05-11T19:18:26.537Z,25.90
2023-05-11T19:20:53.422Z,22.10
2023-05-11T19:23:20.755Z,19.50
2023-05-11T19:25:47.514Z,74.70
2023-05-11T19:28:14.676Z,65.00
2023-05-11T19:30:41.491Z,15.20
2023-05-11T19:33:08.732Z,16.60
2023-05-11T19:35:35.537Z,80.60
2023-05-11T19:38:02.663Z,81.20
2023-05-11T19:43:00.435Z,117.30
2023-05-11T19:45:33.423Z,117.10
2023-05-11T19:48:00.334Z,89.40
2023-05-11T19:50:27.436Z,115.80
2023-05-11T19:52:54.743Z,103.10
2023-05-11T19:55:23.885Z,171.40
2023-05-11T19:57:51.228Z,191.20
2023-05-11T20:00:19.039Z,187.90
2023-05-11T20:02:46.398Z,162.80
2023-05-11T20:05:13.386Z,149.60
2023-05-11T20:10:10.054Z,142.20
2023-05-11T20:12:37.968Z,134.70
2023-05-11T20:15:06.736Z,128.30
2023-05-11T20:17:35.110Z,98.70
2023-05-11T20:20:02.164Z,72.80
2023-05-11T20:22:30.688Z,103.30
2023-05-11T20:27:24.857Z,63.00
2023-05-11T20:29:52.119Z,75.10
2023-05-11T20:32:18.889Z,76.00
2023-05-11T20:34:45.726Z,76.40
2023-05-11T20:37:13.588Z,83.10
2023-05-11T20:39:40.362Z,67.90
2023-05-11T20:42:08.092Z,49.30
2023-05-11T20:44:35.066Z,49.00
2023-05-11T20:47:01.926Z,39.00
2023-05-11T20:49:38.161Z,39.60
2023-05-11T20:52:07.103Z,53.60
2023-05-11T20:54:34.301Z,42.70
2023-05-11T20:57:04.638Z,45.10
2023-05-11T21:02:02.049Z,42.20
2023-05-11T21:04:30.758Z,47.30
2023-05-11T21:06:57.821Z,32.60
2023-05-11T21:09:24.843Z,32.60
2023-05-11T21:11:51.832Z,26.70
2023-05-11T21:14:18.597Z,29.00
2023-05-11T21:16:45.508Z,39.50
2023-05-11T21:19:12.357Z,35.70
2023-05-11T21:21:39.127Z,34.10
2023-05-11T21:24:06.226Z,37.40
2023-05-11T21:26:33.508Z,26.20
2023-05-11T21:29:00.234Z,28.70
2023-05-11T21:31:27.017Z,20.00
2023-05-11T21:33:53.820Z,23.30
2023-05-11T21:36:21.663Z,31.50
2023-05-11T21:38:48.495Z,30.70
2023-05-11T21:41:16.230Z,32.00
2023-05-11T21:43:42.958Z,35.70
2023-05-11T21:46:09.923Z,26.30
2023-05-11T21:48:36.703Z,18.70
2023-05-11T21:51:03.642Z,19.60
2023-05-11T21:53:30.588Z,15.70
2023-05-11T21:55:57.458Z,15.20
2023-05-11T21:58:24.220Z,20.50
2023-05-11T22:00:51.882Z,38.60
2023-05-11T22:03:18.952Z,25.70
2023-05-11T22:05:46.454Z,24.90
2023-05-11T22:08:15.262Z,31.40
2023-05-11T22:10:42.664Z,16.60
2023-05-11T22:13:09.394Z,16.10
2023-05-11T22:15:36.673Z,23.60
2023-05-11T22:18:04.440Z,14.90
2023-05-11T22:20:31.544Z,17.30
2023-05-11T22:22:58.603Z,14.50
2023-05-11T22:25:25.352Z,16.10
2023-05-11T22:27:52.112Z,17.10
2023-05-11T22:30:19.557Z,36.70
2023-05-11T22:32:46.720Z,36.80
2023-05-11T22:35:13.528Z,46.20
2023-05-11T22:37:40.260Z,48.90
2023-05-11T22:40:08.280Z,47.90
2023-05-11T22:42:35.219Z,41.10
2023-05-11T22:45:01.936Z,28.80
2023-05-11T22:47:28.992Z,37.20
2023-05-11T22:49:55.889Z,29.00
2023-05-11T22:52:22.620Z,22.30
2023-05-11T22:54:54.577Z,30.40
2023-05-11T22:57:23.400Z,32.70
2023-05-11T22:59:50.226Z,48.60
2023-05-11T23:02:17.086Z,37.50
2023-05-11T23:04:47.941Z,28.00
2023-05-11T23:07:14.634Z,26.10
2023-05-11T23:09:41.363Z,35.30
2023-05-11T23:12:08.167Z,40.50
2023-05-11T23:14:35.416Z,29.70
2023-05-11T23:17:02.228Z,35.80
2023-05-11T23:19:29.458Z,27.40
2023-05-11T23:21:56.308Z,27.20
2023-05-11T23:24:23.053Z,33.30
2023-05-11T23:26:50.118Z,38.40
2023-05-11T23:29:16.922Z,29.60
2023-05-11T23:31:43.727Z,30.00
2023-05-11T23:34:10.449Z,27.80
2023-05-11T23:36:37.583Z,30.40
2023-05-11T23:39:04.831Z,30.40
2023-05-11T23:41:32.098Z,47.10
2023-05-11T23:43:59.948Z,38.10
2023-05-11T23:46:26.686Z,37.40
2023-05-11T23:48:54.050Z,30.50
2023-05-11T23:51:20.947Z,36.90
2023-05-11T23:53:47.715Z,35.10
2023-05-11T23:56:14.588Z,34.10
2023-05-11T23:58:44.917Z,38.60
